sensor_id;sensor_type;location;lat;lon;timestamp;P1;durP1;ratioP1;P2;durP2;ratioP2
11537;SDS011;50159;49.426;11.182;2023-04-05T00:00:25;2.90;;;2.70;;
11537;SDS011;50159;49.426;11.182;2023-04-05T00:02:53;2.80;;;2.70;;
11537;SDS011;50159;49.426;11.182;2023-04-05T00:05:23;3.30;;;3.10;;
11537;SDS011;50159;49.426;11.182;2023-04-05T00:07:56;5.57;;;3.13;;
11537;SDS011;50159;49.426;11.182;2023-04-05T00:10:26;3.20;;;3.00;;
11537;SDS011;50159;49.426;11.182;2023-04-05T00:12:54;2.87;;;2.77;;
11537;SDS011;50159;49.426;11.182;2023-04-05T00:15:21;3.67;;;3.07;;
11537;SDS011;50159;49.426;11.182;2023-04-05T00:17:48;2.90;;;2.80;;
11537;SDS011;50159;49.426;11.182;2023-04-05T00:20:15;4.07;;;3.10;;
11537;SDS011;50159;49.426;11.182;2023-04-05T00:22:42;3.87;;;3.57;;
11537;SDS011;50159;49.426;11.182;2023-04-05T00:25:10;3.27;;;3.07;;
11537;SDS011;50159;49.426;11.182;2023-04-05T00:27:37;3.00;;;2.83;;
11537;SDS011;50159;49.426;11.182;2023-04-05T00:30:08;3.13;;;2.97;;
11537;SDS011;50159;49.426;11.182;2023-04-05T00:32:35;3.30;;;3.10;;
11537;SDS011;50159;49.426;11.182;2023-04-05T00:35:02;3.50;;;3.20;;
11537;SDS011;50159;49.426;11.182;2023-04-05T00:37:29;3.70;;;3.40;;
11537;SDS011;50159;49.426;11.182;2023-04-05T00:39:56;3.83;;;3.03;;
11537;SDS011;50159;49.426;11.182;2023-04-05T00:42:22;2.90;;;2.70;;
11537;SDS011;50159;49.426;11.182;2023-04-05T00:44:49;3.10;;;2.90;;
11537;SDS011;50159;49.426;11.182;2023-04-05T00:47:16;3.50;;;3.03;;
11537;SDS011;50159;49.426;11.182;2023-04-05T00:49:43;3.30;;;3.10;;
11537;SDS011;50159;49.426;11.182;2023-04-05T00:52:10;3.07;;;2.87;;
11537;SDS011;50159;49.426;11.182;2023-04-05T00:54:38;2.80;;;2.70;;
11537;SDS011;50159;49.426;11.182;2023-04-05T00:57:04;2.73;;;2.63;;
11537;SDS011;50159;49.426;11.182;2023-04-05T00:59:32;4.80;;;3.10;;
11537;SDS011;50159;49.426;11.182;2023-04-05T01:05:03;3.40;;;3.20;;
11537;SDS011;50159;49.426;11.182;2023-04-05T01:07:45;3.30;;;3.20;;
11537;SDS011;50159;49.426;11.182;2023-04-05T01:10:35;3.47;;;3.20;;
11537;SDS011;50159;49.426;11.182;2023-04-05T01:13:09;3.43;;;3.23;;
11537;SDS011;50159;49.426;11.182;2023-04-05T01:15:36;3.40;;;3.20;;
11537;SDS011;50159;49.426;11.182;2023-04-05T01:18:03;3.57;;;3.30;;
11537;SDS011;50159;49.426;11.182;2023-04-05T01:20:33;3.10;;;2.90;;
11537;SDS011;50159;49.426;11.182;2023-04-05T01:26:52;2.80;;;2.70;;
11537;SDS011;50159;49.426;11.182;2023-04-05T01:35:43;2.97;;;2.87;;
11537;SDS011;50159;49.426;11.182;2023-04-05T01:38:23;3.27;;;3.00;;
11537;SDS011;50159;49.426;11.182;2023-04-05T01:40:53;3.07;;;2.97;;
11537;SDS011;50159;49.426;11.182;2023-04-05T01:43:20;3.23;;;3.13;;
11537;SDS011;50159;49.426;11.182;2023-04-05T01:45:47;3.17;;;3.00;;
11537;SDS011;50159;49.426;11.182;2023-04-05T01:48:14;2.97;;;2.87;;
11537;SDS011;50159;49.426;11.182;2023-04-05T01:50:41;3.10;;;2.90;;
11537;SDS011;50159;49.426;11.182;2023-04-05T01:53:08;3.47;;;3.20;;
11537;SDS011;50159;49.426;11.182;2023-04-05T01:55:35;2.83;;;2.73;;
11537;SDS011;50159;49.426;11.182;2023-04-05T01:58:02;2.87;;;2.83;;
11537;SDS011;50159;49.426;11.182;2023-04-05T02:00:29;4.60;;;2.70;;
11537;SDS011;50159;49.426;11.182;2023-04-05T02:02:56;3.33;;;3.13;;
11537;SDS011;50159;49.426;11.182;2023-04-05T02:05:23;3.13;;;3.00;;
11537;SDS011;50159;49.426;11.182;2023-04-05T02:07:50;4.50;;;3.37;;
11537;SDS011;50159;49.426;11.182;2023-04-05T02:10:17;4.23;;;3.20;;
11537;SDS011;50159;49.426;11.182;2023-04-05T02:12:45;3.40;;;3.20;;
11537;SDS011;50159;49.426;11.182;2023-04-05T02:15:12;3.17;;;2.97;;
11537;SDS011;50159;49.426;11.182;2023-04-05T02:17:39;3.30;;;3.20;;
11537;SDS011;50159;49.426;11.182;2023-04-05T02:20:12;2.83;;;2.70;;
11537;SDS011;50159;49.426;11.182;2023-04-05T02:22:40;4.10;;;3.80;;
11537;SDS011;50159;49.426;11.182;2023-04-05T02:25:10;2.87;;;2.77;;
11537;SDS011;50159;49.426;11.182;2023-04-05T02:27:38;3.93;;;3.20;;
11537;SDS011;50159;49.426;11.182;2023-04-05T02:30:05;2.80;;;2.70;;
11537;SDS011;50159;49.426;11.182;2023-04-05T02:32:32;3.20;;;3.10;;
11537;SDS011;50159;49.426;11.182;2023-04-05T02:34:59;3.57;;;3.00;;
11537;SDS011;50159;49.426;11.182;2023-04-05T02:37:26;3.30;;;3.10;;
11537;SDS011;50159;49.426;11.182;2023-04-05T02:39:53;3.63;;;3.43;;
11537;SDS011;50159;49.426;11.182;2023-04-05T02:42:20;3.67;;;3.37;;
11537;SDS011;50159;49.426;11.182;2023-04-05T02:44:47;3.60;;;3.40;;
11537;SDS011;50159;49.426;11.182;2023-04-05T02:47:14;3.47;;;3.33;;
11537;SDS011;50159;49.426;11.182;2023-04-05T02:49:49;3.60;;;3.40;;
11537;SDS011;50159;49.426;11.182;2023-04-05T02:52:16;3.77;;;3.47;;
11537;SDS011;50159;49.426;11.182;2023-04-05T02:54:43;3.27;;;3.10;;
11537;SDS011;50159;49.426;11.182;2023-04-05T02:57:12;4.03;;;3.40;;
11537;SDS011;50159;49.426;11.182;2023-04-05T02:59:38;3.47;;;3.27;;
11537;SDS011;50159;49.426;11.182;2023-04-05T03:02:06;7.17;;;3.17;;
11537;SDS011;50159;49.426;11.182;2023-04-05T03:04:34;3.70;;;3.40;;
11537;SDS011;50159;49.426;11.182;2023-04-05T03:07:02;3.57;;;3.37;;
11537;SDS011;50159;49.426;11.182;2023-04-05T03:09:29;3.53;;;3.33;;
11537;SDS011;50159;49.426;11.182;2023-04-05T03:12:00;3.40;;;2.93;;
11537;SDS011;50159;49.426;11.182;2023-04-05T03:14:30;3.23;;;3.10;;
11537;SDS011;50159;49.426;11.182;2023-04-05T03:16:58;3.50;;;3.20;;
11537;SDS011;50159;49.426;11.182;2023-04-05T03:19:25;2.87;;;2.77;;
11537;SDS011;50159;49.426;11.182;2023-04-05T03:21:52;3.43;;;3.13;;
11537;SDS011;50159;49.426;11.182;2023-04-05T03:24:19;3.80;;;3.50;;
11537;SDS011;50159;49.426;11.182;2023-04-05T03:26:46;3.17;;;3.00;;
11537;SDS011;50159;49.426;11.182;2023-04-05T03:29:14;3.47;;;3.27;;
11537;SDS011;50159;49.426;11.182;2023-04-05T03:31:42;3.77;;;3.60;;
11537;SDS011;50159;49.426;11.182;2023-04-05T03:34:10;3.57;;;3.20;;
11537;SDS011;50159;49.426;11.182;2023-04-05T03:36:37;3.50;;;3.30;;
11537;SDS011;50159;49.426;11.182;2023-04-05T03:39:07;3.47;;;3.27;;
11537;SDS011;50159;49.426;11.182;2023-04-05T03:41:36;3.20;;;3.10;;
11537;SDS011;50159;49.426;11.182;2023-04-05T03:44:07;3.30;;;3.03;;
11537;SDS011;50159;49.426;11.182;2023-04-05T03:46:34;3.27;;;3.07;;
11537;SDS011;50159;49.426;11.182;2023-04-05T03:49:03;2.97;;;2.87;;
11537;SDS011;50159;49.426;11.182;2023-04-05T03:51:31;3.80;;;3.57;;
11537;SDS011;50159;49.426;11.182;2023-04-05T03:53:58;3.53;;;3.23;;
11537;SDS011;50159;49.426;11.182;2023-04-05T03:56:25;3.50;;;3.27;;
11537;SDS011;50159;49.426;11.182;2023-04-05T03:58:52;3.57;;;3.27;;
11537;SDS011;50159;49.426;11.182;2023-04-05T04:01:19;3.40;;;3.20;;
11537;SDS011;50159;49.426;11.182;2023-04-05T04:03:46;3.17;;;2.90;;
11537;SDS011;50159;49.426;11.182;2023-04-05T04:06:13;3.20;;;3.10;;
11537;SDS011;50159;49.426;11.182;2023-04-05T04:08:44;4.23;;;3.83;;
11537;SDS011;50159;49.426;11.182;2023-04-05T04:11:11;4.10;;;3.57;;
11537;SDS011;50159;49.426;11.182;2023-04-05T04:13:37;4.00;;;3.70;;
11537;SDS011;50159;49.426;11.182;2023-04-05T04:16:04;3.80;;;3.50;;
11537;SDS011;50159;49.426;11.182;2023-04-05T04:18:31;3.57;;;3.27;;
11537;SDS011;50159;49.426;11.182;2023-04-05T04:21:00;5.17;;;3.60;;
11537;SDS011;50159;49.426;11.182;2023-04-05T04:23:32;3.10;;;3.00;;
11537;SDS011;50159;49.426;11.182;2023-04-05T04:25:59;3.53;;;3.13;;
11537;SDS011;50159;49.426;11.182;2023-04-05T04:28:28;3.23;;;3.10;;
11537;SDS011;50159;49.426;11.182;2023-04-05T04:30:54;3.23;;;3.03;;
11537;SDS011;50159;49.426;11.182;2023-04-05T04:33:21;3.73;;;3.53;;
11537;SDS011;50159;49.426;11.182;2023-04-05T04:35:49;3.47;;;3.30;;
11537;SDS011;50159;49.426;11.182;2023-04-05T04:38:19;4.57;;;3.40;;
11537;SDS011;50159;49.426;11.182;2023-04-05T04:40:46;3.50;;;3.30;;
11537;SDS011;50159;49.426;11.182;2023-04-05T04:43:15;3.63;;;3.33;;
11537;SDS011;50159;49.426;11.182;2023-04-05T04:48:14;2.87;;;2.77;;
11537;SDS011;50159;49.426;11.182;2023-04-05T04:50:42;3.90;;;3.43;;
11537;SDS011;50159;49.426;11.182;2023-04-05T04:53:10;3.40;;;3.30;;
11537;SDS011;50159;49.426;11.182;2023-04-05T04:55:39;4.50;;;3.40;;
11537;SDS011;50159;49.426;11.182;2023-04-05T04:58:08;3.97;;;3.67;;
11537;SDS011;50159;49.426;11.182;2023-04-05T05:00:38;3.70;;;3.50;;
11537;SDS011;50159;49.426;11.182;2023-04-05T05:03:10;4.20;;;3.80;;
11537;SDS011;50159;49.426;11.182;2023-04-05T05:05:41;3.90;;;3.70;;
11537;SDS011;50159;49.426;11.182;2023-04-05T05:08:12;3.73;;;3.53;;
11537;SDS011;50159;49.426;11.182;2023-04-05T05:10:39;4.50;;;4.10;;
11537;SDS011;50159;49.426;11.182;2023-04-05T05:13:06;3.50;;;3.30;;
11537;SDS011;50159;49.426;11.182;2023-04-05T05:15:33;3.37;;;3.17;;
11537;SDS011;50159;49.426;11.182;2023-04-05T05:18:00;3.80;;;3.60;;
11537;SDS011;50159;49.426;11.182;2023-04-05T05:20:28;3.83;;;3.53;;
11537;SDS011;50159;49.426;11.182;2023-04-05T05:22:55;4.23;;;3.97;;
11537;SDS011;50159;49.426;11.182;2023-04-05T05:25:24;3.93;;;3.63;;
11537;SDS011;50159;49.426;11.182;2023-04-05T05:27:51;4.07;;;3.70;;
11537;SDS011;50159;49.426;11.182;2023-04-05T05:30:18;3.63;;;3.53;;
11537;SDS011;50159;49.426;11.182;2023-04-05T05:32:46;3.90;;;3.70;;
11537;SDS011;50159;49.426;11.182;2023-04-05T05:35:13;4.20;;;3.80;;
11537;SDS011;50159;49.426;11.182;2023-04-05T05:37:40;3.83;;;3.63;;
11537;SDS011;50159;49.426;11.182;2023-04-05T05:40:07;5.30;;;3.97;;
11537;SDS011;50159;49.426;11.182;2023-04-05T05:42:35;3.70;;;3.50;;
11537;SDS011;50159;49.426;11.182;2023-04-05T05:45:02;3.70;;;3.50;;
11537;SDS011;50159;49.426;11.182;2023-04-05T05:47:31;4.00;;;3.70;;
11537;SDS011;50159;49.426;11.182;2023-04-05T05:49:58;3.77;;;3.57;;
11537;SDS011;50159;49.426;11.182;2023-04-05T05:52:24;4.00;;;3.53;;
11537;SDS011;50159;49.426;11.182;2023-04-05T05:54:51;5.23;;;4.03;;
11537;SDS011;50159;49.426;11.182;2023-04-05T05:57:18;5.13;;;3.87;;
11537;SDS011;50159;49.426;11.182;2023-04-05T05:59:45;4.03;;;3.73;;
11537;SDS011;50159;49.426;11.182;2023-04-05T06:02:12;3.90;;;3.70;;
11537;SDS011;50159;49.426;11.182;2023-04-05T06:04:39;4.00;;;3.80;;
11537;SDS011;50159;49.426;11.182;2023-04-05T06:07:06;4.23;;;3.93;;
11537;SDS011;50159;49.426;11.182;2023-04-05T06:09:33;4.80;;;4.33;;
11537;SDS011;50159;49.426;11.182;2023-04-05T06:12:00;3.97;;;3.67;;
11537;SDS011;50159;49.426;11.182;2023-04-05T06:14:27;3.57;;;3.37;;
11537;SDS011;50159;49.426;11.182;2023-04-05T06:16:57;6.73;;;3.70;;
11537;SDS011;50159;49.426;11.182;2023-04-05T06:19:24;3.43;;;3.23;;
11537;SDS011;50159;49.426;11.182;2023-04-05T06:21:50;4.80;;;4.37;;
11537;SDS011;50159;49.426;11.182;2023-04-05T06:24:17;4.17;;;3.87;;
11537;SDS011;50159;49.426;11.182;2023-04-05T06:26:48;5.20;;;3.93;;
11537;SDS011;50159;49.426;11.182;2023-04-05T06:29:16;4.13;;;3.77;;
11537;SDS011;50159;49.426;11.182;2023-04-05T06:31:43;5.43;;;3.83;;
11537;SDS011;50159;49.426;11.182;2023-04-05T06:34:12;4.77;;;4.17;;
11537;SDS011;50159;49.426;11.182;2023-04-05T06:36:39;4.57;;;4.17;;
11537;SDS011;50159;49.426;11.182;2023-04-05T06:39:06;4.40;;;4.10;;
11537;SDS011;50159;49.426;11.182;2023-04-05T06:41:33;4.60;;;4.30;;
11537;SDS011;50159;49.426;11.182;2023-04-05T06:44:00;4.77;;;4.37;;
11537;SDS011;50159;49.426;11.182;2023-04-05T06:46:27;5.20;;;4.70;;
11537;SDS011;50159;49.426;11.182;2023-04-05T06:48:54;5.83;;;5.23;;
11537;SDS011;50159;49.426;11.182;2023-04-05T06:51:21;7.23;;;5.17;;
11537;SDS011;50159;49.426;11.182;2023-04-05T06:53:47;6.57;;;5.00;;
11537;SDS011;50159;49.426;11.182;2023-04-05T06:56:14;4.70;;;4.40;;
11537;SDS011;50159;49.426;11.182;2023-04-05T06:58:41;4.93;;;4.50;;
11537;SDS011;50159;49.426;11.182;2023-04-05T07:01:09;4.27;;;3.87;;
11537;SDS011;50159;49.426;11.182;2023-04-05T07:03:36;5.07;;;4.67;;
11537;SDS011;50159;49.426;11.182;2023-04-05T07:06:03;4.17;;;3.87;;
11537;SDS011;50159;49.426;11.182;2023-04-05T07:08:30;4.00;;;3.67;;
11537;SDS011;50159;49.426;11.182;2023-04-05T07:10:58;4.20;;;3.90;;
11537;SDS011;50159;49.426;11.182;2023-04-05T07:13:25;6.17;;;4.13;;
11537;SDS011;50159;49.426;11.182;2023-04-05T07:15:52;4.00;;;3.60;;
11537;SDS011;50159;49.426;11.182;2023-04-05T07:18:26;3.93;;;3.67;;
11537;SDS011;50159;49.426;11.182;2023-04-05T07:20:55;3.77;;;3.57;;
11537;SDS011;50159;49.426;11.182;2023-04-05T07:23:27;3.70;;;3.47;;
11537;SDS011;50159;49.426;11.182;2023-04-05T07:25:54;3.40;;;3.10;;
11537;SDS011;50159;49.426;11.182;2023-04-05T07:28:31;3.40;;;3.20;;
11537;SDS011;50159;49.426;11.182;2023-04-05T07:31:00;3.33;;;3.03;;
11537;SDS011;50159;49.426;11.182;2023-04-05T07:33:29;3.30;;;3.10;;
11537;SDS011;50159;49.426;11.182;2023-04-05T07:35:55;3.20;;;3.00;;
11537;SDS011;50159;49.426;11.182;2023-04-05T07:38:23;3.10;;;2.90;;
11537;SDS011;50159;49.426;11.182;2023-04-05T07:40:50;3.30;;;3.10;;
11537;SDS011;50159;49.426;11.182;2023-04-05T07:43:17;4.43;;;3.30;;
11537;SDS011;50159;49.426;11.182;2023-04-05T07:45:44;3.63;;;3.50;;
11537;SDS011;50159;49.426;11.182;2023-04-05T07:48:11;3.60;;;3.37;;
11537;SDS011;50159;49.426;11.182;2023-04-05T07:50:38;6.03;;;3.50;;
11537;SDS011;50159;49.426;11.182;2023-04-05T07:53:06;7.73;;;3.67;;
11537;SDS011;50159;49.426;11.182;2023-04-05T07:55:36;4.20;;;3.17;;
11537;SDS011;50159;49.426;11.182;2023-04-05T07:58:03;3.47;;;3.17;;
11537;SDS011;50159;49.426;11.182;2023-04-05T08:00:30;3.80;;;3.50;;
11537;SDS011;50159;49.426;11.182;2023-04-05T08:02:57;3.43;;;3.07;;
11537;SDS011;50159;49.426;11.182;2023-04-05T08:05:27;2.90;;;2.80;;
11537;SDS011;50159;49.426;11.182;2023-04-05T08:07:54;3.20;;;3.03;;
11537;SDS011;50159;49.426;11.182;2023-04-05T08:10:23;4.83;;;2.90;;
11537;SDS011;50159;49.426;11.182;2023-04-05T08:12:50;3.40;;;3.10;;
11537;SDS011;50159;49.426;11.182;2023-04-05T08:15:18;2.90;;;2.70;;
11537;SDS011;50159;49.426;11.182;2023-04-05T08:17:45;3.37;;;3.07;;
11537;SDS011;50159;49.426;11.182;2023-04-05T08:20:11;3.10;;;2.90;;
11537;SDS011;50159;49.426;11.182;2023-04-05T08:22:38;3.40;;;3.10;;
11537;SDS011;50159;49.426;11.182;2023-04-05T08:25:05;2.90;;;2.70;;
11537;SDS011;50159;49.426;11.182;2023-04-05T08:27:33;3.50;;;3.20;;
11537;SDS011;50159;49.426;11.182;2023-04-05T08:30:00;3.57;;;3.00;;
11537;SDS011;50159;49.426;11.182;2023-04-05T08:32:27;5.17;;;2.87;;
11537;SDS011;50159;49.426;11.182;2023-04-05T08:34:53;3.10;;;3.00;;
11537;SDS011;50159;49.426;11.182;2023-04-05T08:37:20;3.00;;;2.77;;
11537;SDS011;50159;49.426;11.182;2023-04-05T08:39:47;2.80;;;2.70;;
11537;SDS011;50159;49.426;11.182;2023-04-05T08:42:15;2.87;;;2.77;;
11537;SDS011;50159;49.426;11.182;2023-04-05T08:44:44;2.80;;;2.60;;
11537;SDS011;50159;49.426;11.182;2023-04-05T08:47:17;2.90;;;2.70;;
11537;SDS011;50159;49.426;11.182;2023-04-05T08:49:45;3.70;;;3.40;;
11537;SDS011;50159;49.426;11.182;2023-04-05T08:52:12;3.40;;;3.10;;
11537;SDS011;50159;49.426;11.182;2023-04-05T08:54:39;7.23;;;3.37;;
11537;SDS011;50159;49.426;11.182;2023-04-05T08:57:06;2.83;;;2.63;;
11537;SDS011;50159;49.426;11.182;2023-04-05T08:59:36;2.87;;;2.77;;
11537;SDS011;50159;49.426;11.182;2023-04-05T09:02:11;3.20;;;3.00;;
11537;SDS011;50159;49.426;11.182;2023-04-05T09:04:44;2.83;;;2.37;;
11537;SDS011;50159;49.426;11.182;2023-04-05T09:07:13;2.90;;;2.57;;
11537;SDS011;50159;49.426;11.182;2023-04-05T09:09:41;3.17;;;2.97;;
11537;SDS011;50159;49.426;11.182;2023-04-05T09:12:13;3.80;;;2.90;;
11537;SDS011;50159;49.426;11.182;2023-04-05T09:14:40;3.33;;;3.03;;
11537;SDS011;50159;49.426;11.182;2023-04-05T09:17:08;3.47;;;3.17;;
11537;SDS011;50159;49.426;11.182;2023-04-05T09:19:36;5.43;;;3.00;;
11537;SDS011;50159;49.426;11.182;2023-04-05T09:22:04;4.30;;;2.97;;
11537;SDS011;50159;49.426;11.182;2023-04-05T09:24:36;3.23;;;3.03;;
11537;SDS011;50159;49.426;11.182;2023-04-05T09:27:10;3.30;;;3.00;;
11537;SDS011;50159;49.426;11.182;2023-04-05T09:29:45;3.10;;;2.90;;
11537;SDS011;50159;49.426;11.182;2023-04-05T09:32:14;3.53;;;3.23;;
11537;SDS011;50159;49.426;11.182;2023-04-05T09:34:46;4.83;;;2.73;;
11537;SDS011;50159;49.426;11.182;2023-04-05T09:37:16;2.90;;;2.70;;
11537;SDS011;50159;49.426;11.182;2023-04-05T09:39:45;2.83;;;2.33;;
11537;SDS011;50159;49.426;11.182;2023-04-05T09:42:16;2.53;;;2.43;;
11537;SDS011;50159;49.426;11.182;2023-04-05T09:44:48;2.60;;;2.50;;
11537;SDS011;50159;49.426;11.182;2023-04-05T09:47:31;2.70;;;2.50;;
11537;SDS011;50159;49.426;11.182;2023-04-05T09:50:03;3.07;;;2.97;;
11537;SDS011;50159;49.426;11.182;2023-04-05T09:52:38;2.33;;;2.23;;
11537;SDS011;50159;49.426;11.182;2023-04-05T09:55:06;3.37;;;3.07;;
11537;SDS011;50159;49.426;11.182;2023-04-05T09:57:34;3.10;;;2.90;;
11537;SDS011;50159;49.426;11.182;2023-04-05T10:00:04;3.20;;;2.90;;
11537;SDS011;50159;49.426;11.182;2023-04-05T10:02:35;4.53;;;2.70;;
11537;SDS011;50159;49.426;11.182;2023-04-05T10:05:05;4.13;;;3.40;;
11537;SDS011;50159;49.426;11.182;2023-04-05T10:07:36;3.60;;;3.30;;
11537;SDS011;50159;49.426;11.182;2023-04-05T10:10:10;3.50;;;3.27;;
11537;SDS011;50159;49.426;11.182;2023-04-05T10:12:39;2.93;;;2.60;;
11537;SDS011;50159;49.426;11.182;2023-04-05T10:15:07;2.93;;;2.83;;
11537;SDS011;50159;49.426;11.182;2023-04-05T10:17:38;3.13;;;2.80;;
11537;SDS011;50159;49.426;11.182;2023-04-05T10:20:15;3.10;;;2.83;;
11537;SDS011;50159;49.426;11.182;2023-04-05T10:22:59;3.27;;;3.00;;
11537;SDS011;50159;49.426;11.182;2023-04-05T10:31:12;3.40;;;3.10;;
11537;SDS011;50159;49.426;11.182;2023-04-05T10:37:08;3.37;;;3.07;;
11537;SDS011;50159;49.426;11.182;2023-04-05T10:40:02;3.20;;;2.90;;
11537;SDS011;50159;49.426;11.182;2023-04-05T10:42:39;3.63;;;3.33;;
11537;SDS011;50159;49.426;11.182;2023-04-05T10:45:10;3.30;;;3.10;;
11537;SDS011;50159;49.426;11.182;2023-04-05T10:47:46;3.83;;;3.17;;
11537;SDS011;50159;49.426;11.182;2023-04-05T10:50:24;3.00;;;2.80;;
11537;SDS011;50159;49.426;11.182;2023-04-05T10:52:51;3.50;;;3.20;;
11537;SDS011;50159;49.426;11.182;2023-04-05T10:55:18;2.83;;;2.63;;
11537;SDS011;50159;49.426;11.182;2023-04-05T10:57:47;3.07;;;2.87;;
11537;SDS011;50159;49.426;11.182;2023-04-05T11:00:15;2.87;;;2.77;;
11537;SDS011;50159;49.426;11.182;2023-04-05T11:02:44;3.47;;;2.43;;
11537;SDS011;50159;49.426;11.182;2023-04-05T11:05:46;2.90;;;2.70;;
11537;SDS011;50159;49.426;11.182;2023-04-05T11:08:06;2.60;;;2.50;;
11537;SDS011;50159;49.426;11.182;2023-04-05T11:10:37;2.53;;;2.40;;
11537;SDS011;50159;49.426;11.182;2023-04-05T11:13:05;2.50;;;2.40;;
11537;SDS011;50159;49.426;11.182;2023-04-05T11:15:34;2.33;;;2.23;;
11537;SDS011;50159;49.426;11.182;2023-04-05T11:23:31;4.07;;;2.60;;
11537;SDS011;50159;49.426;11.182;2023-04-05T11:26:05;2.50;;;2.40;;
11537;SDS011;50159;49.426;11.182;2023-04-05T11:28:35;3.00;;;2.80;;
11537;SDS011;50159;49.426;11.182;2023-04-05T11:36:29;3.83;;;2.50;;
11537;SDS011;50159;49.426;11.182;2023-04-05T11:44:46;3.40;;;3.10;;
11537;SDS011;50159;49.426;11.182;2023-04-05T11:47:16;3.10;;;2.90;;
11537;SDS011;50159;49.426;11.182;2023-04-05T11:49:49;2.53;;;2.33;;
11537;SDS011;50159;49.426;11.182;2023-04-05T11:52:18;3.13;;;2.93;;
11537;SDS011;50159;49.426;11.182;2023-04-05T11:54:46;3.13;;;3.00;;
11537;SDS011;50159;49.426;11.182;2023-04-05T11:57:18;3.17;;;2.87;;
11537;SDS011;50159;49.426;11.182;2023-04-05T11:59:51;3.03;;;2.90;;
11537;SDS011;50159;49.426;11.182;2023-04-05T12:02:19;2.53;;;2.40;;
11537;SDS011;50159;49.426;11.182;2023-04-05T12:04:53;2.77;;;2.57;;
11537;SDS011;50159;49.426;11.182;2023-04-05T12:07:24;3.87;;;3.10;;
11537;SDS011;50159;49.426;11.182;2023-04-05T12:10:07;4.33;;;2.60;;
11537;SDS011;50159;49.426;11.182;2023-04-05T12:12:42;2.60;;;2.50;;
11537;SDS011;50159;49.426;11.182;2023-04-05T12:15:11;2.80;;;2.60;;
11537;SDS011;50159;49.426;11.182;2023-04-05T12:18:02;2.83;;;2.57;;
11537;SDS011;50159;49.426;11.182;2023-04-05T12:20:29;2.70;;;2.57;;
11537;SDS011;50159;49.426;11.182;2023-04-05T12:22:58;3.10;;;2.80;;
11537;SDS011;50159;49.426;11.182;2023-04-05T12:25:25;2.80;;;2.60;;
11537;SDS011;50159;49.426;11.182;2023-04-05T12:27:52;3.40;;;3.10;;
11537;SDS011;50159;49.426;11.182;2023-04-05T12:30:20;3.93;;;3.17;;
11537;SDS011;50159;49.426;11.182;2023-04-05T12:32:49;3.00;;;2.80;;
11537;SDS011;50159;49.426;11.182;2023-04-05T12:35:28;2.60;;;2.50;;
11537;SDS011;50159;49.426;11.182;2023-04-05T12:38:00;5.97;;;3.00;;
11537;SDS011;50159;49.426;11.182;2023-04-05T12:40:28;2.80;;;2.60;;
11537;SDS011;50159;49.426;11.182;2023-04-05T12:43:02;3.37;;;3.07;;
11537;SDS011;50159;49.426;11.182;2023-04-05T12:45:34;3.07;;;2.87;;
11537;SDS011;50159;49.426;11.182;2023-04-05T12:48:12;2.70;;;2.40;;
11537;SDS011;50159;49.426;11.182;2023-04-05T12:50:45;2.07;;;2.03;;
11537;SDS011;50159;49.426;11.182;2023-04-05T12:53:17;2.20;;;2.10;;
11537;SDS011;50159;49.426;11.182;2023-04-05T12:55:50;2.87;;;2.67;;
11537;SDS011;50159;49.426;11.182;2023-04-05T12:58:20;2.53;;;2.43;;
11537;SDS011;50159;49.426;11.182;2023-04-05T13:00:57;3.37;;;3.00;;
11537;SDS011;50159;49.426;11.182;2023-04-05T13:03:24;2.70;;;2.50;;
11537;SDS011;50159;49.426;11.182;2023-04-05T13:05:53;3.47;;;3.17;;
11537;SDS011;50159;49.426;11.182;2023-04-05T13:08:19;2.97;;;2.80;;
11537;SDS011;50159;49.426;11.182;2023-04-05T13:10:47;2.50;;;2.40;;
11537;SDS011;50159;49.426;11.182;2023-04-05T13:13:15;2.87;;;2.70;;
11537;SDS011;50159;49.426;11.182;2023-04-05T13:15:43;3.37;;;3.10;;
11537;SDS011;50159;49.426;11.182;2023-04-05T13:18:11;3.63;;;3.03;;
11537;SDS011;50159;49.426;11.182;2023-04-05T13:20:43;3.03;;;2.83;;
11537;SDS011;50159;49.426;11.182;2023-04-05T13:23:10;3.27;;;2.90;;
11537;SDS011;50159;49.426;11.182;2023-04-05T13:25:41;3.17;;;2.90;;
11537;SDS011;50159;49.426;11.182;2023-04-05T13:28:12;2.77;;;2.67;;
11537;SDS011;50159;49.426;11.182;2023-04-05T13:30:39;2.70;;;2.60;;
11537;SDS011;50159;49.426;11.182;2023-04-05T13:33:06;2.90;;;2.70;;
11537;SDS011;50159;49.426;11.182;2023-04-05T13:35:33;2.60;;;2.50;;
11537;SDS011;50159;49.426;11.182;2023-04-05T13:38:00;2.97;;;2.77;;
11537;SDS011;50159;49.426;11.182;2023-04-05T13:40:30;3.30;;;3.10;;
11537;SDS011;50159;49.426;11.182;2023-04-05T13:42:57;2.93;;;2.73;;
11537;SDS011;50159;49.426;11.182;2023-04-05T13:45:24;9.33;;;3.37;;
11537;SDS011;50159;49.426;11.182;2023-04-05T13:47:52;2.80;;;2.60;;
11537;SDS011;50159;49.426;11.182;2023-04-05T13:50:19;4.53;;;3.23;;
11537;SDS011;50159;49.426;11.182;2023-04-05T13:52:46;3.17;;;2.80;;
11537;SDS011;50159;49.426;11.182;2023-04-05T13:55:13;2.50;;;2.40;;
11537;SDS011;50159;49.426;11.182;2023-04-05T13:57:40;2.67;;;2.57;;
11537;SDS011;50159;49.426;11.182;2023-04-05T14:00:07;3.43;;;2.60;;
11537;SDS011;50159;49.426;11.182;2023-04-05T14:02:35;2.67;;;2.47;;
11537;SDS011;50159;49.426;11.182;2023-04-05T14:05:02;2.33;;;2.30;;
11537;SDS011;50159;49.426;11.182;2023-04-05T14:07:31;2.43;;;2.33;;
11537;SDS011;50159;49.426;11.182;2023-04-05T14:09:58;2.17;;;2.07;;
11537;SDS011;50159;49.426;11.182;2023-04-05T14:12:25;3.10;;;2.17;;
11537;SDS011;50159;49.426;11.182;2023-04-05T14:14:52;2.70;;;2.57;;
11537;SDS011;50159;49.426;11.182;2023-04-05T14:17:19;3.67;;;2.87;;
11537;SDS011;50159;49.426;11.182;2023-04-05T14:19:45;2.87;;;2.77;;
11537;SDS011;50159;49.426;11.182;2023-04-05T14:22:12;2.53;;;2.37;;
11537;SDS011;50159;49.426;11.182;2023-04-05T14:24:39;2.53;;;2.37;;
11537;SDS011;50159;49.426;11.182;2023-04-05T14:27:06;4.63;;;2.37;;
11537;SDS011;50159;49.426;11.182;2023-04-05T14:29:33;2.80;;;2.57;;
11537;SDS011;50159;49.426;11.182;2023-04-05T14:31:59;2.50;;;2.40;;
11537;SDS011;50159;49.426;11.182;2023-04-05T14:34:26;2.78;;;2.53;;
11537;SDS011;50159;49.426;11.182;2023-04-05T14:36:53;2.17;;;2.07;;
11537;SDS011;50159;49.426;11.182;2023-04-05T14:39:23;3.13;;;2.60;;
11537;SDS011;50159;49.426;11.182;2023-04-05T14:41:50;2.50;;;2.40;;
11537;SDS011;50159;49.426;11.182;2023-04-05T14:44:18;2.30;;;2.20;;
11537;SDS011;50159;49.426;11.182;2023-04-05T14:46:45;2.73;;;2.53;;
11537;SDS011;50159;49.426;11.182;2023-04-05T14:49:13;2.80;;;2.60;;
11537;SDS011;50159;49.426;11.182;2023-04-05T14:51:40;2.70;;;2.60;;
11537;SDS011;50159;49.426;11.182;2023-04-05T14:54:07;3.03;;;2.83;;
11537;SDS011;50159;49.426;11.182;2023-04-05T14:56:34;2.37;;;2.27;;
11537;SDS011;50159;49.426;11.182;2023-04-05T14:59:00;2.83;;;2.73;;
11537;SDS011;50159;49.426;11.182;2023-04-05T15:01:27;5.20;;;2.90;;
11537;SDS011;50159;49.426;11.182;2023-04-05T15:03:55;2.50;;;2.40;;
11537;SDS011;50159;49.426;11.182;2023-04-05T15:06:22;2.30;;;2.20;;
11537;SDS011;50159;49.426;11.182;2023-04-05T15:08:48;2.90;;;2.70;;
11537;SDS011;50159;49.426;11.182;2023-04-05T15:11:16;2.90;;;2.70;;
11537;SDS011;50159;49.426;11.182;2023-04-05T15:13:43;2.70;;;2.50;;
11537;SDS011;50159;49.426;11.182;2023-04-05T15:16:10;2.70;;;2.50;;
11537;SDS011;50159;49.426;11.182;2023-04-05T15:18:36;3.43;;;2.30;;
11537;SDS011;50159;49.426;11.182;2023-04-05T15:21:04;2.53;;;2.13;;
11537;SDS011;50159;49.426;11.182;2023-04-05T15:23:32;2.77;;;2.53;;